Time;durP1;ratioP1;P1;durP2;ratioP2;P2;SDS_P1;SDS_P2;PMS_P1;PMS_P2;Temp;Humidity;BMP_temperature;BMP_pressure;BME280_temperature;BME280_humidity;BME280_pressure;Samples;Min_cycle;Max_cycle;Signal;HPM_P1;HPM_P2
2022/03/11 00:01:13;;;;;;;0.10;0.10;;;7.20;47.20;;;;;;5039542;28;20018;-75
2022/03/11 00:03:39;;;;;;;1.75;1.65;;;7.20;47.40;;;;;;5040519;28;20530;-75
2022/03/11 00:06:05;;;;;;;0.10;0.10;;;7.30;47.50;;;;;;5039062;28;20029;-75
2022/03/11 00:08:31;;;;;;;0.10;0.10;;;7.10;47.80;;;;;;5037200;28;20026;-76
2022/03/11 00:10:57;;;;;;;0.73;0.73;;;7.10;47.90;;;;;;5040578;28;20075;-76
2022/03/11 00:13:24;;;;;;;0.10;0.10;;;7.10;48.20;;;;;;5028426;28;20179;-75
2022/03/11 00:15:51;;;;;;;0.10;0.10;;;7.00;48.20;;;;;;5035038;28;20032;-75
2022/03/11 00:18:18;;;;;;;0.10;0.10;;;7.00;48.70;;;;;;5033654;28;20022;-75
2022/03/11 00:20:44;;;;;;;0.10;0.10;;;6.90;48.70;;;;;;5033387;28;20017;-76
2022/03/11 00:23:11;;;;;;;0.20;0.20;;;6.90;48.80;;;;;;5038177;28;20021;-76
2022/03/11 00:25:37;;;;;;;0.20;0.20;;;6.90;48.90;;;;;;5036385;28;20052;-74
2022/03/11 00:28:03;;;;;;;0.10;0.10;;;6.90;48.80;;;;;;5036772;28;20021;-75
2022/03/11 00:30:29;;;;;;;0.15;0.15;;;6.90;48.90;;;;;;5034307;28;20033;-75
2022/03/11 00:32:56;;;;;;;0.38;0.38;;;6.90;49.00;;;;;;5039559;28;20108;-74
2022/03/11 00:35:21;;;;;;;0.35;0.35;;;6.90;49.30;;;;;;5044645;28;20030;-75
2022/03/11 00:37:48;;;;;;;0.20;0.20;;;6.80;49.30;;;;;;5044216;28;20487;-75
2022/03/11 00:40:13;;;;;;;0.10;0.10;;;6.90;49.70;;;;;;5041069;28;20026;-76
2022/03/11 00:42:40;;;;;;;0.30;0.30;;;6.80;49.80;;;;;;5043382;28;20033;-76
2022/03/11 00:45:06;;;;;;;0.93;0.93;;;6.80;49.80;;;;;;5040507;28;20053;-75
2022/03/11 00:47:32;;;;;;;1.52;1.45;;;6.80;49.80;;;;;;5042899;28;20025;-75
2022/03/11 00:49:58;;;;;;;0.10;0.10;;;6.70;50.00;;;;;;5041787;28;20048;-75
2022/03/11 00:52:23;;;;;;;0.10;0.10;;;6.70;50.30;;;;;;5040479;28;20475;-75
2022/03/11 00:54:49;;;;;;;0.82;0.82;;;6.70;50.50;;;;;;5037118;28;20025;-75
2022/03/11 00:57:16;;;;;;;0.90;0.90;;;6.60;50.60;;;;;;5037212;28;20033;-75
2022/03/11 00:59:42;;;;;;;0.20;0.20;;;6.60;50.60;;;;;;5036145;28;20109;-75
2022/03/11 01:02:08;;;;;;;0.10;0.10;;;6.60;50.90;;;;;;5041627;28;20033;-75
2022/03/11 01:04:34;;;;;;;0.50;0.50;;;6.60;51.30;;;;;;5042028;28;20021;-75
2022/03/11 01:07:00;;;;;;;0.30;0.30;;;6.60;51.40;;;;;;5037942;28;20033;-75
2022/03/11 01:09:26;;;;;;;0.10;0.10;;;6.60;51.50;;;;;;5036351;28;20021;-76
2022/03/11 01:11:52;;;;;;;0.35;0.35;;;6.60;51.60;;;;;;5041785;28;20033;-74
2022/03/11 01:14:18;;;;;;;0.10;0.10;;;6.50;51.80;;;;;;5039752;28;20514;-75
2022/03/11 01:16:44;;;;;;;0.10;0.10;;;6.40;52.10;;;;;;5036863;28;20027;-75
2022/03/11 01:19:10;;;;;;;0.20;0.20;;;6.40;52.30;;;;;;5041383;28;20025;-75
2022/03/11 01:21:36;;;;;;;0.10;0.10;;;6.30;52.60;;;;;;5041770;28;20016;-75
2022/03/11 01:24:01;;;;;;;1.45;1.00;;;6.30;52.90;;;;;;5040877;28;20061;-75
2022/03/11 01:26:27;;;;;;;0.20;0.20;;;6.30;53.30;;;;;;5037279;28;20022;-75
2022/03/11 01:28:53;;;;;;;0.10;0.10;;;6.30;53.40;;;;;;5037698;28;20024;-75
2022/03/11 01:31:19;;;;;;;0.10;0.10;;;6.20;53.40;;;;;;5042529;28;20033;-75
2022/03/11 01:33:46;;;;;;;0.95;0.35;;;6.20;53.70;;;;;;5039826;28;20123;-75
2022/03/11 01:36:12;;;;;;;5.30;4.82;;;6.20;53.80;;;;;;5041237;28;20028;-75
2022/03/11 01:38:39;;;;;;;0.10;0.10;;;6.20;54.00;;;;;;5041544;28;20025;-75
2022/03/11 01:41:05;;;;;;;1.15;1.08;;;6.20;54.30;;;;;;5039645;28;20402;-75
2022/03/11 01:43:58;;;;;;;0.13;0.13;;;6.10;54.40;;;;;;5035448;28;20046;-75
2022/03/11 01:46:24;;;;;;;0.10;0.10;;;6.10;54.70;;;;;;5056494;22;20492;-76
2022/03/11 01:48:49;;;;;;;1.08;1.08;;;6.10;55.00;;;;;;5068750;28;20035;-75
2022/03/11 01:51:16;;;;;;;0.10;0.10;;;6.10;55.30;;;;;;5069480;28;20031;-76
2022/03/11 01:53:43;;;;;;;6.93;2.28;;;6.10;55.60;;;;;;5070337;28;20543;-77
2022/03/11 01:56:10;;;;;;;0.15;0.15;;;6.00;55.90;;;;;;5069390;28;20040;-76
2022/03/11 01:58:36;;;;;;;0.10;0.10;;;6.00;56.40;;;;;;5070721;28;20089;-76
2022/03/11 02:01:03;;;;;;;0.10;0.10;;;6.00;56.80;;;;;;5070285;28;20034;-76
2022/03/11 02:03:29;;;;;;;0.10;0.10;;;5.90;57.20;;;;;;5070018;28;20021;-76
2022/03/11 02:05:55;;;;;;;0.10;0.10;;;5.90;57.60;;;;;;5068775;28;20102;-77
2022/03/11 02:08:21;;;;;;;4.57;4.13;;;5.80;58.20;;;;;;5069541;28;20490;-75
2022/03/11 02:10:47;;;;;;;0.13;0.13;;;5.80;58.60;;;;;;5070139;28;20474;-75
2022/03/11 02:13:13;;;;;;;0.10;0.10;;;5.80;59.10;;;;;;5070487;28;20021;-76
2022/03/11 02:15:38;;;;;;;0.98;0.90;;;5.80;59.40;;;;;;5069742;28;20037;-76
2022/03/11 02:18:04;;;;;;;2.65;0.85;;;5.80;59.80;;;;;;5068503;28;20021;-76
2022/03/11 02:20:30;;;;;;;0.10;0.10;;;5.70;60.30;;;;;;5070088;28;20024;-76
2022/03/11 02:22:58;;;;;;;0.65;0.65;;;5.70;61.20;;;;;;5066909;28;20073;-75
2022/03/11 02:25:23;;;;;;;0.10;0.10;;;5.70;62.00;;;;;;5069364;28;20055;-75
2022/03/11 02:27:49;;;;;;;0.10;0.10;;;5.60;62.70;;;;;;5069202;28;20072;-76
2022/03/11 02:30:20;;;;;;;0.10;0.10;;;5.60;64.20;;;;;;5068322;28;20028;-76
2022/03/11 02:32:47;;;;;;;0.10;0.10;;;5.60;64.50;;;;;;5069448;28;20410;-76
2022/03/11 02:35:14;;;;;;;0.10;0.10;;;5.60;65.50;;;;;;5069158;28;20025;-76
2022/03/11 02:37:40;;;;;;;0.73;0.73;;;5.60;67.80;;;;;;5064017;28;20032;-75
2022/03/11 02:40:07;;;;;;;0.10;0.10;;;5.60;67.60;;;;;;5069395;28;20024;-76
2022/03/11 02:42:33;;;;;;;2.25;2.15;;;5.50;68.60;;;;;;5068963;28;20063;-76
2022/03/11 02:45:00;;;;;;;0.10;0.10;;;5.50;69.40;;;;;;5068149;28;20478;-76
2022/03/11 02:47:27;;;;;;;0.10;0.10;;;5.40;70.70;;;;;;5069614;28;20059;-76
2022/03/11 02:49:53;;;;;;;7.95;1.85;;;5.30;72.70;;;;;;5068708;28;20103;-76
2022/03/11 02:52:18;;;;;;;0.10;0.10;;;5.20;75.10;;;;;;5068728;28;20707;-76
2022/03/11 02:54:44;;;;;;;0.50;0.50;;;5.20;77.10;;;;;;5072803;28;20074;-76
2022/03/11 02:57:10;;;;;;;0.63;0.63;;;5.20;78.00;;;;;;5073178;28;20059;-75
2022/03/11 02:59:35;;;;;;;0.10;0.10;;;5.20;78.90;;;;;;5068619;28;20036;-76
2022/03/11 03:02:01;;;;;;;0.20;0.20;;;5.10;80.20;;;;;;5069729;28;20304;-76
2022/03/11 03:04:27;;;;;;;0.10;0.10;;;5.20;81.60;;;;;;5069823;28;20033;-76
2022/03/11 03:06:54;;;;;;;0.10;0.10;;;5.10;83.20;;;;;;5065866;28;20028;-76
2022/03/11 03:09:23;;;;;;;0.35;0.35;;;5.20;83.20;;;;;;5068112;28;20044;-77
2022/03/11 03:11:48;;;;;;;0.10;0.10;;;5.10;84.00;;;;;;5069693;28;20028;-75
2022/03/11 03:14:14;;;;;;;0.10;0.10;;;5.10;84.80;;;;;;5076503;28;20571;-74
2022/03/11 03:16:40;;;;;;;0.10;0.10;;;5.10;85.60;;;;;;5070989;28;20399;-76
2022/03/11 03:19:05;;;;;;;0.10;0.10;;;5.00;86.90;;;;;;5070012;28;20024;-76
2022/03/11 03:21:31;;;;;;;0.30;0.30;;;5.10;87.80;;;;;;5069257;28;20434;-76
2022/03/11 03:23:57;;;;;;;0.22;0.22;;;5.00;88.30;;;;;;5068086;28;20108;-76
2022/03/11 03:26:22;;;;;;;0.98;0.95;;;4.90;88.60;;;;;;5069367;28;20551;-77
2022/03/11 03:28:49;;;;;;;5.47;2.30;;;5.00;88.90;;;;;;5069277;28;20025;-77
2022/03/11 03:31:18;;;;;;;0.10;0.10;;;4.90;89.70;;;;;;5068449;28;20111;-75
2022/03/11 03:33:44;;;;;;;0.10;0.10;;;4.90;89.50;;;;;;5069307;28;20107;-76
2022/03/11 03:36:09;;;;;;;0.10;0.10;;;4.80;90.00;;;;;;5068659;28;20108;-76
2022/03/11 03:38:35;;;;;;;1.95;1.85;;;4.80;90.30;;;;;;5067134;28;20033;-76
2022/03/11 03:41:01;;;;;;;0.10;0.10;;;5.00;90.70;;;;;;5065818;28;20024;-76
2022/03/11 03:43:26;;;;;;;0.10;0.10;;;4.80;90.60;;;;;;5068913;28;20021;-76
2022/03/11 03:45:52;;;;;;;0.50;0.50;;;4.80;90.80;;;;;;5069508;28;20474;-76
2022/03/11 03:48:19;;;;;;;0.10;0.10;;;4.70;90.90;;;;;;5068774;28;20520;-76
2022/03/11 03:50:45;;;;;;;0.43;0.43;;;4.70;91.50;;;;;;5066672;28;20547;-76
2022/03/11 03:53:11;;;;;;;0.10;0.10;;;4.60;91.10;;;;;;5065740;28;20029;-76
2022/03/11 03:55:36;;;;;;;1.23;1.23;;;4.60;91.70;;;;;;5068793;28;20600;-76
2022/03/11 03:58:02;;;;;;;0.10;0.10;;;4.60;90.80;;;;;;5068108;28;20029;-76
2022/03/11 04:00:29;;;;;;;0.10;0.10;;;4.60;90.90;;;;;;5068882;28;20062;-76
2022/03/11 04:02:54;;;;;;;2.58;2.38;;;4.60;91.00;;;;;;5068368;28;20596;-76
2022/03/11 04:05:23;;;;;;;0.10;0.10;;;4.50;91.10;;;;;;5070892;28;20032;-76
2022/03/11 04:07:49;;;;;;;2.22;2.13;;;4.50;91.40;;;;;;5071512;28;20020;-75
2022/03/11 04:10:16;;;;;;;0.10;0.10;;;4.40;91.90;;;;;;5072337;28;20047;-76
2022/03/11 04:12:42;;;;;;;0.30;0.30;;;4.50;91.60;;;;;;5072832;28;20024;-75
2022/03/11 04:15:09;;;;;;;5.68;5.15;;;4.40;91.60;;;;;;5071362;28;20519;-75
2022/03/11 04:17:34;;;;;;;0.10;0.10;;;4.40;92.10;;;;;;5072381;28;20032;-75
2022/03/11 04:20:01;;;;;;;0.10;0.10;;;4.40;91.80;;;;;;5072428;28;20509;-75
2022/03/11 04:22:26;;;;;;;0.65;0.65;;;4.30;91.70;;;;;;5071376;28;20024;-75
2022/03/11 04:24:55;;;;;;;0.63;0.63;;;4.30;91.20;;;;;;5071908;28;20039;-75
2022/03/11 04:27:21;;;;;;;0.75;0.75;;;4.30;90.90;;;;;;5071066;28;20371;-76
2022/03/11 04:29:47;;;;;;;0.10;0.10;;;4.30;90.80;;;;;;5072148;28;20211;-75
2022/03/11 04:32:12;;;;;;;0.10;0.10;;;4.20;90.50;;;;;;5073146;28;20116;-75
2022/03/11 04:34:38;;;;;;;0.45;0.45;;;4.20;90.00;;;;;;5072796;28;20607;-75
2022/03/11 04:37:04;;;;;;;0.43;0.43;;;4.20;90.10;;;;;;5071814;28;20543;-76
2022/03/11 04:39:30;;;;;;;0.10;0.10;;;4.10;89.40;;;;;;5072286;28;20153;-76
2022/03/11 04:41:56;;;;;;;0.30;0.30;;;4.10;89.50;;;;;;5072745;28;20062;-76
2022/03/11 04:44:22;;;;;;;1.40;1.40;;;4.10;89.70;;;;;;5072976;28;20043;-75
2022/03/11 04:46:48;;;;;;;0.10;0.10;;;4.00;90.00;;;;;;5073375;28;20036;-77
2022/03/11 04:49:14;;;;;;;1.10;1.10;;;4.00;89.30;;;;;;5071216;28;20092;-76
2022/03/11 04:51:40;;;;;;;0.10;0.10;;;3.90;89.10;;;;;;5071170;28;20044;-75
2022/03/11 04:54:06;;;;;;;0.20;0.20;;;4.00;89.60;;;;;;5071858;28;20032;-76
2022/03/11 04:56:32;;;;;;;0.10;0.10;;;3.80;89.50;;;;;;5071482;28;20036;-75
2022/03/11 04:58:58;;;;;;;6.82;2.60;;;3.90;88.00;;;;;;5070870;28;20100;-75
2022/03/11 05:01:24;;;;;;;0.75;0.50;;;3.90;88.30;;;;;;5071732;28;20025;-75
2022/03/11 05:03:50;;;;;;;0.10;0.10;;;3.80;87.60;;;;;;5071951;28;20035;-75
2022/03/11 05:06:16;;;;;;;0.65;0.63;;;3.70;88.40;;;;;;5069450;28;20485;-75
2022/03/11 05:08:42;;;;;;;0.10;0.10;;;3.70;87.50;;;;;;5068840;28;20024;-75
2022/03/11 05:11:08;;;;;;;4.00;3.67;;;3.70;87.70;;;;;;5071972;28;20031;-75
2022/03/11 05:13:34;;;;;;;0.10;0.10;;;3.70;86.90;;;;;;5072462;28;20091;-75
2022/03/11 05:16:00;;;;;;;1.10;1.08;;;3.80;86.70;;;;;;5074978;28;20149;-76
2022/03/11 05:18:26;;;;;;;5.38;1.85;;;3.70;86.60;;;;;;5081129;28;20024;-76
2022/03/11 05:20:52;;;;;;;1.75;1.65;;;3.60;86.40;;;;;;5073063;28;20028;-76
2022/03/11 05:23:18;;;;;;;0.10;0.10;;;3.70;86.50;;;;;;5070414;28;20028;-76
2022/03/11 05:25:44;;;;;;;0.10;0.10;;;3.70;85.40;;;;;;5070328;28;20046;-76
2022/03/11 05:28:09;;;;;;;0.10;0.10;;;3.70;85.60;;;;;;5071242;28;20051;-77
2022/03/11 05:30:36;;;;;;;0.10;0.10;;;3.60;83.00;;;;;;5072222;28;20408;-76
2022/03/11 05:33:03;;;;;;;0.10;0.10;;;3.50;82.70;;;;;;5071539;28;20025;-75
2022/03/11 05:35:29;;;;;;;5.35;4.82;;;3.40;81.90;;;;;;5072165;28;20529;-76
2022/03/11 05:37:55;;;;;;;0.10;0.10;;;3.50;82.50;;;;;;5071950;28;20060;-76
2022/03/11 05:40:21;;;;;;;0.10;0.10;;;3.50;81.10;;;;;;5073168;28;20024;-75
2022/03/11 05:42:46;;;;;;;0.10;0.10;;;3.50;79.80;;;;;;5072855;28;20074;-76
2022/03/11 05:45:12;;;;;;;0.10;0.10;;;3.40;80.00;;;;;;5071485;28;20455;-76
2022/03/11 05:47:39;;;;;;;0.73;0.73;;;3.30;79.40;;;;;;5071566;28;20090;-75
2022/03/11 05:50:06;;;;;;;2.53;1.95;;;3.30;79.30;;;;;;5071328;28;20174;-76
2022/03/11 05:52:34;;;;;;;0.73;0.73;;;3.30;78.90;;;;;;5065800;28;20040;-75
2022/03/11 05:54:59;;;;;;;0.13;0.13;;;3.50;78.30;;;;;;5069804;28;20036;-75
2022/03/11 05:57:25;;;;;;;0.10;0.10;;;3.60;76.80;;;;;;5067426;28;20040;-77
2022/03/11 05:59:51;;;;;;;0.10;0.10;;;3.40;76.00;;;;;;5072700;28;20406;-77
2022/03/11 06:02:17;;;;;;;0.10;0.10;;;3.30;75.10;;;;;;5073176;28;20044;-75
2022/03/11 06:04:42;;;;;;;0.10;0.10;;;3.30;74.80;;;;;;5071107;28;20025;-76
2022/03/11 06:07:09;;;;;;;0.10;0.10;;;3.30;74.70;;;;;;5071144;28;20680;-76
2022/03/11 06:09:34;;;;;;;3.33;3.13;;;3.30;74.40;;;;;;5070634;28;20074;-77
2022/03/11 06:12:00;;;;;;;0.30;0.30;;;3.30;73.90;;;;;;5070656;28;20433;-75
2022/03/11 06:14:26;;;;;;;0.13;0.13;;;3.40;73.90;;;;;;5071473;28;20108;-75
2022/03/11 06:16:51;;;;;;;0.28;0.28;;;3.40;73.00;;;;;;5072555;28;20043;-77
2022/03/11 06:19:17;;;;;;;0.10;0.10;;;3.40;73.40;;;;;;5072983;28;20024;-75
2022/03/11 06:21:43;;;;;;;0.15;0.15;;;3.40;72.80;;;;;;5072493;28;20020;-77
2022/03/11 06:24:09;;;;;;;0.20;0.20;;;3.30;71.30;;;;;;5073752;28;20074;-77
2022/03/11 06:26:35;;;;;;;0.10;0.10;;;3.30;71.00;;;;;;5070866;28;20020;-76
2022/03/11 06:29:01;;;;;;;0.10;0.10;;;3.30;71.90;;;;;;5072596;28;20044;-77
2022/03/11 06:31:26;;;;;;;0.10;0.10;;;3.40;71.20;;;;;;5073492;28;20028;-79
2022/03/11 06:33:53;;;;;;;0.47;0.47;;;3.40;70.80;;;;;;5072831;28;20029;-77
2022/03/11 06:36:18;;;;;;;0.30;0.30;;;3.40;70.50;;;;;;5071959;28;20426;-76
2022/03/11 06:38:44;;;;;;;0.55;0.55;;;3.50;70.40;;;;;;5071816;28;20030;-77
2022/03/11 06:41:11;;;;;;;0.10;0.10;;;3.60;69.70;;;;;;5071539;28;20028;-76
2022/03/11 06:43:37;;;;;;;0.10;0.10;;;3.60;70.20;;;;;;5075731;28;20112;-77
2022/03/11 06:46:03;;;;;;;0.10;0.10;;;3.60;68.30;;;;;;5072522;28;20055;-75
2022/03/11 06:48:28;;;;;;;0.10;0.10;;;3.60;67.60;;;;;;5071622;28;20033;-77
2022/03/11 06:50:54;;;;;;;0.10;0.10;;;3.60;67.10;;;;;;5075016;28;20390;-77
2022/03/11 06:53:25;;;;;;;0.20;0.20;;;3.60;67.70;;;;;;5073988;28;20095;-77
2022/03/11 06:55:52;;;;;;;0.10;0.10;;;3.60;66.90;;;;;;5071175;28;20047;-77
2022/03/11 06:58:18;;;;;;;0.20;0.20;;;3.60;66.40;;;;;;5072431;28;20058;-76
2022/03/11 07:00:44;;;;;;;1.17;1.17;;;3.60;65.90;;;;;;5074077;28;20092;-78
2022/03/11 07:03:10;;;;;;;0.10;0.10;;;3.60;65.50;;;;;;5074016;28;20477;-76
2022/03/11 07:05:35;;;;;;;1.95;1.85;;;3.60;65.60;;;;;;5070993;28;20492;-78
2022/03/11 07:08:01;;;;;;;0.10;0.10;;;3.60;64.80;;;;;;5075721;28;20016;-78
2022/03/11 07:10:27;;;;;;;2.70;2.47;;;3.70;65.00;;;;;;5074654;28;20493;-78
2022/03/11 07:12:53;;;;;;;0.10;0.10;;;3.80;64.50;;;;;;5071976;28;20097;-74
2022/03/11 07:15:19;;;;;;;0.15;0.15;;;3.80;65.30;;;;;;5074265;28;20440;-78
2022/03/11 07:17:46;;;;;;;0.35;0.35;;;3.80;64.50;;;;;;5074498;28;20029;-77
2022/03/11 07:20:12;;;;;;;0.10;0.10;;;3.90;64.10;;;;;;5079412;28;20085;-76
2022/03/11 07:22:39;;;;;;;0.43;0.43;;;3.90;63.80;;;;;;5077908;28;20108;-80
2022/03/11 07:25:08;;;;;;;2.55;2.45;;;3.90;63.90;;;;;;5067898;28;20021;-77
2022/03/11 07:27:34;;;;;;;0.22;0.22;;;4.00;63.50;;;;;;5074765;28;20028;-78
2022/03/11 07:30:00;;;;;;;0.10;0.10;;;4.10;63.40;;;;;;5073136;28;20033;-76
2022/03/11 07:32:26;;;;;;;0.10;0.10;;;4.10;63.00;;;;;;5081498;28;20060;-77
2022/03/11 07:34:52;;;;;;;0.60;0.52;;;4.10;62.50;;;;;;5075094;28;20025;-78
2022/03/11 07:37:19;;;;;;;0.10;0.10;;;4.10;62.50;;;;;;5072153;28;20043;-78
2022/03/11 07:39:45;;;;;;;0.10;0.10;;;4.10;62.50;;;;;;5076304;28;20290;-77
2022/03/11 07:42:11;;;;;;;0.10;0.10;;;4.20;62.10;;;;;;5078369;28;20060;-77
2022/03/11 07:44:37;;;;;;;0.10;0.10;;;4.20;61.80;;;;;;5076233;28;20032;-79
2022/03/11 07:47:03;;;;;;;0.10;0.10;;;4.30;61.90;;;;;;5085421;22;20536;-71
2022/03/11 07:49:29;;;;;;;0.10;0.10;;;4.40;61.50;;;;;;5059285;28;20017;-71
2022/03/11 07:51:55;;;;;;;0.13;0.13;;;4.50;60.90;;;;;;5061087;28;20013;-70
2022/03/11 07:54:21;;;;;;;0.10;0.10;;;4.50;60.60;;;;;;5057356;28;20067;-71
2022/03/11 07:56:47;;;;;;;0.10;0.10;;;4.60;60.80;;;;;;5060159;28;20048;-71
2022/03/11 07:59:13;;;;;;;0.10;0.10;;;4.70;60.20;;;;;;5061301;28;20056;-70
2022/03/11 08:01:38;;;;;;;0.10;0.10;;;4.70;60.40;;;;;;5064556;28;20483;-72
2022/03/11 08:04:05;;;;;;;0.10;0.10;;;4.80;60.70;;;;;;5059033;28;20111;-72
2022/03/11 08:06:31;;;;;;;0.20;0.20;;;4.90;60.10;;;;;;5057243;28;20028;-71
2022/03/11 08:08:57;;;;;;;0.10;0.10;;;4.90;60.70;;;;;;5062862;28;20104;-71
2022/03/11 08:11:24;;;;;;;0.25;0.25;;;4.90;60.30;;;;;;5061795;28;20028;-71
2022/03/11 08:13:50;;;;;;;0.10;0.10;;;5.00;61.20;;;;;;5056694;28;20108;-71
2022/03/11 08:16:16;;;;;;;0.10;0.10;;;5.00;60.80;;;;;;5062255;28;20108;-70
2022/03/11 08:18:45;;;;;;;0.10;0.10;;;5.00;61.10;;;;;;5061905;28;20533;-69
2022/03/11 08:21:12;;;;;;;0.10;0.10;;;5.00;61.80;;;;;;5061263;28;20025;-70
2022/03/11 08:23:39;;;;;;;0.10;0.10;;;5.10;61.90;;;;;;5062815;28;20017;-71
2022/03/11 08:26:06;;;;;;;0.80;0.80;;;5.00;61.80;;;;;;5062970;28;20226;-71
2022/03/11 08:28:32;;;;;;;0.30;0.30;;;5.10;62.20;;;;;;5060343;28;20113;-74
2022/03/11 08:30:58;;;;;;;0.17;0.17;;;5.20;62.50;;;;;;5061723;28;20033;-71
2022/03/11 08:33:24;;;;;;;0.10;0.10;;;5.30;63.10;;;;;;5064225;28;20044;-71
2022/03/11 08:35:52;;;;;;;1.58;1.55;;;5.50;61.90;;;;;;5058836;28;20028;-71
2022/03/11 08:38:19;;;;;;;0.10;0.10;;;5.50;62.20;;;;;;5054949;28;20462;-72
2022/03/11 08:40:45;;;;;;;0.10;0.10;;;5.80;61.90;;;;;;5057922;28;20470;-70
2022/03/11 08:43:11;;;;;;;1.65;1.45;;;5.90;61.00;;;;;;5057807;28;20021;-71
2022/03/11 08:45:38;;;;;;;1.35;1.30;;;6.00;60.50;;;;;;5061892;28;20028;-72
2022/03/11 08:48:04;;;;;;;0.10;0.10;;;6.10;59.30;;;;;;5049917;28;20047;-71
2022/03/11 08:50:30;;;;;;;0.10;0.10;;;6.10;59.50;;;;;;5049704;28;20020;-70
2022/03/11 08:52:56;;;;;;;0.10;0.10;;;6.20;59.90;;;;;;5056372;28;20501;-71
2022/03/11 08:55:22;;;;;;;0.20;0.20;;;6.20;59.20;;;;;;5059248;28;20035;-70
2022/03/11 08:57:50;;;;;;;0.10;0.10;;;6.20;58.30;;;;;;5062770;28;20020;-70
2022/03/11 09:00:19;;;;;;;0.10;0.10;;;6.30;58.60;;;;;;5056672;28;20039;-72
2022/03/11 09:02:46;;;;;;;0.30;0.30;;;6.40;59.60;;;;;;5059474;28;20489;-71
2022/03/11 09:05:15;;;;;;;0.10;0.10;;;6.60;59.10;;;;;;5060716;28;20017;-71
2022/03/11 09:07:44;;;;;;;0.10;0.10;;;6.60;58.90;;;;;;5052707;28;20049;-67
2022/03/11 09:10:18;;;;;;;0.10;0.10;;;6.50;58.90;;;;;;5061775;28;20025;-69
2022/03/11 09:12:45;;;;;;;0.10;0.10;;;6.40;57.00;;;;;;5061083;28;20021;-67
2022/03/11 09:15:13;;;;;;;0.55;0.55;;;6.60;58.60;;;;;;5058482;28;20134;-71
2022/03/11 09:17:40;;;;;;;0.28;0.28;;;6.60;58.90;;;;;;5055422;28;20029;-72
2022/03/11 09:20:06;;;;;;;0.10;0.10;;;6.80;58.10;;;;;;5058767;28;20039;-73
2022/03/11 09:22:34;;;;;;;0.68;0.68;;;7.00;58.00;;;;;;5058327;28;20394;-73
2022/03/11 09:25:01;;;;;;;0.10;0.10;;;7.00;58.00;;;;;;5061424;28;20081;-71
2022/03/11 09:27:29;;;;;;;0.10;0.10;;;7.20;57.70;;;;;;5057747;28;20032;-71
2022/03/11 09:29:56;;;;;;;0.10;0.10;;;7.30;56.20;;;;;;5061982;28;20108;-72
2022/03/11 09:32:22;;;;;;;0.45;0.45;;;7.20;55.50;;;;;;5056341;28;20071;-72
2022/03/11 09:34:48;;;;;;;0.10;0.10;;;7.30;55.40;;;;;;5054964;28;20021;-72
2022/03/11 09:37:15;;;;;;;0.10;0.10;;;7.30;55.50;;;;;;5048083;28;20390;-72
2022/03/11 09:39:44;;;;;;;0.10;0.10;;;7.40;55.50;;;;;;5051568;28;20501;-72
2022/03/11 09:42:11;;;;;;;0.20;0.20;;;7.50;55.50;;;;;;5048450;28;20064;-73
2022/03/11 09:44:39;;;;;;;0.10;0.10;;;7.50;55.40;;;;;;5046082;28;20028;-69
2022/03/11 09:47:09;;;;;;;0.10;0.10;;;7.70;55.40;;;;;;5054110;28;20506;-70
2022/03/11 09:49:36;;;;;;;0.32;0.32;;;7.70;54.90;;;;;;5059601;28;20036;-73
2022/03/11 09:52:07;;;;;;;2.17;1.98;;;7.70;54.30;;;;;;5056887;28;20021;-72
2022/03/11 09:54:37;;;;;;;0.10;0.10;;;7.90;54.50;;;;;;5057317;28;20063;-74
2022/03/11 09:57:04;;;;;;;0.10;0.10;;;8.00;54.20;;;;;;5058221;28;20094;-75
2022/03/11 09:59:34;;;;;;;0.10;0.10;;;8.00;54.50;;;;;;5058957;28;20021;-76
2022/03/11 10:02:11;;;;;;;0.40;0.40;;;8.20;54.50;;;;;;5057229;28;20086;-73
2022/03/11 10:04:37;;;;;;;0.10;0.10;;;8.40;54.10;;;;;;5049765;28;20489;-73
2022/03/11 10:07:04;;;;;;;0.10;0.10;;;8.50;54.00;;;;;;5054557;28;20451;-74
2022/03/11 10:09:33;;;;;;;2.70;2.60;;;8.60;54.00;;;;;;5055828;28;20116;-73
2022/03/11 10:12:05;;;;;;;0.10;0.10;;;8.50;53.80;;;;;;5055377;28;20207;-74
2022/03/11 10:14:35;;;;;;;0.93;0.93;;;8.50;53.70;;;;;;5052059;28;20394;-73
2022/03/11 10:17:03;;;;;;;0.10;0.10;;;8.60;54.00;;;;;;5057872;28;20339;-74
2022/03/11 10:19:30;;;;;;;0.13;0.13;;;8.70;53.60;;;;;;5046624;28;20017;-77
2022/03/11 10:22:00;;;;;;;0.10;0.10;;;8.80;53.70;;;;;;5050556;28;20036;-82
2022/03/11 10:24:27;;;;;;;0.10;0.10;;;8.80;54.10;;;;;;5053312;28;20029;-78
2022/03/11 10:26:58;;;;;;;0.10;0.10;;;8.90;53.80;;;;;;5049895;28;20067;-79
2022/03/11 10:29:34;;;;;;;0.10;0.10;;;9.10;53.80;;;;;;5055890;28;20032;-78
2022/03/11 10:32:01;;;;;;;0.10;0.10;;;9.20;53.40;;;;;;5047583;28;20036;-80
2022/03/11 10:34:34;;;;;;;0.10;0.10;;;9.30;53.00;;;;;;5061899;28;20021;-76
2022/03/11 10:37:09;;;;;;;0.10;0.10;;;9.30;52.70;;;;;;5061246;28;20055;-75
2022/03/11 10:39:41;;;;;;;0.20;0.20;;;9.40;52.60;;;;;;5055623;28;20025;-75
2022/03/11 10:42:17;;;;;;;0.10;0.10;;;9.50;52.90;;;;;;5049674;28;20506;-78
2022/03/11 10:45:04;;;;;;;0.10;0.10;;;9.50;52.30;;;;;;5048981;28;20025;-77
2022/03/11 10:47:36;;;;;;;0.10;0.10;;;9.60;53.00;;;;;;5062311;28;20105;-77
2022/03/11 10:50:15;;;;;;;1.38;1.27;;;9.80;52.40;;;;;;5059924;28;20040;-77
2022/03/11 10:52:48;;;;;;;0.10;0.10;;;9.90;51.60;;;;;;5056039;28;20024;-78
2022/03/11 10:55:29;;;;;;;0.20;0.20;;;9.90;51.50;;;;;;5055301;28;20564;-77
2022/03/11 10:57:59;;;;;;;0.47;0.47;;;10.00;51.10;;;;;;5054232;28;20040;-77
2022/03/11 11:00:27;;;;;;;0.17;0.17;;;10.00;50.60;;;;;;5059678;28;20024;-75
2022/03/11 11:03:02;;;;;;;0.10;0.10;;;10.10;51.10;;;;;;5054634;28;20233;-78
2022/03/11 11:05:29;;;;;;;0.10;0.10;;;10.10;50.50;;;;;;5060265;28;20478;-75
2022/03/11 11:07:57;;;;;;;7.38;3.20;;;10.20;50.50;;;;;;5055356;28;20029;-75
2022/03/11 11:10:24;;;;;;;0.10;0.10;;;10.30;50.50;;;;;;5053549;28;20033;-75
2022/03/11 11:12:51;;;;;;;0.10;0.10;;;10.20;49.80;;;;;;5058375;28;20047;-78
2022/03/11 11:15:18;;;;;;;0.10;0.10;;;10.30;50.10;;;;;;5049341;28;20027;-78
2022/03/11 11:17:45;;;;;;;4.85;3.95;;;10.40;49.80;;;;;;5049598;28;20031;-76
2022/03/11 11:20:30;;;;;;;0.15;0.15;;;10.60;49.60;;;;;;5052165;28;20032;-73
2022/03/11 11:22:57;;;;;;;0.10;0.10;;;10.50;49.10;;;;;;5052889;28;20517;-71
2022/03/11 11:25:34;;;;;;;0.10;0.10;;;10.60;49.40;;;;;;5051872;28;20028;-75
2022/03/11 11:28:08;;;;;;;0.10;0.10;;;10.60;48.80;;;;;;5054887;28;20024;-78
2022/03/11 11:30:38;;;;;;;0.10;0.10;;;10.50;48.80;;;;;;5051825;28;20040;-71
2022/03/11 11:33:04;;;;;;;0.20;0.20;;;10.60;49.60;;;;;;5046643;28;20107;-72
2022/03/11 11:35:37;;;;;;;0.10;0.10;;;10.70;49.00;;;;;;5058701;28;20024;-72
2022/03/11 11:38:31;;;;;;;0.10;0.10;;;10.80;49.00;;;;;;5050431;28;20028;-74
2022/03/11 11:41:00;;;;;;;0.10;0.10;;;10.80;48.70;;;;;;5045493;28;20493;-76
2022/03/11 11:43:30;;;;;;;0.13;0.13;;;10.90;48.70;;;;;;5061469;28;20120;-79
2022/03/11 11:46:02;;;;;;;1.00;1.00;;;11.00;48.60;;;;;;5049691;28;20053;-77
2022/03/11 11:48:42;;;;;;;0.10;0.10;;;11.10;48.40;;;;;;5057316;28;20029;-75
2022/03/11 11:51:11;;;;;;;0.30;0.30;;;11.10;48.40;;;;;;5054907;28;20013;-77
2022/03/11 11:53:40;;;;;;;0.10;0.10;;;11.10;48.20;;;;;;5058073;28;20076;-76
2022/03/11 11:56:43;;;;;;;0.32;0.32;;;11.00;48.60;;;;;;5049692;28;20033;-76
2022/03/11 11:59:18;;;;;;;0.10;0.10;;;11.10;48.50;;;;;;5057683;28;20100;-77
2022/03/11 12:01:45;;;;;;;0.28;0.28;;;11.20;48.40;;;;;;5061438;28;20036;-76
2022/03/11 12:04:20;;;;;;;0.10;0.10;;;11.30;48.70;;;;;;5058037;28;20033;-77
2022/03/11 12:06:56;;;;;;;2.28;2.08;;;11.20;47.90;;;;;;5058734;28;20021;-75
2022/03/11 12:12:19;;;;;;;0.10;0.10;;;11.40;48.50;;;;;;5057485;28;20037;-77
2022/03/11 12:15:00;;;;;;;0.10;0.10;;;11.40;47.60;;;;;;5055650;28;20059;-76
2022/03/11 12:17:35;;;;;;;0.17;0.17;;;11.50;48.30;;;;;;5059296;28;20029;-80
2022/03/11 12:20:38;;;;;;;0.22;0.22;;;11.60;48.20;;;;;;5058295;28;20025;-77
2022/03/11 12:23:08;;;;;;;0.10;0.10;;;11.60;48.40;;;;;;5052690;28;20021;-76
2022/03/11 12:25:35;;;;;;;0.10;0.10;;;11.60;48.10;;;;;;5058181;28;20024;-78
2022/03/11 12:28:35;;;;;;;0.28;0.28;;;11.60;49.10;;;;;;5064675;28;20021;-77
2022/03/11 12:31:24;;;;;;;1.65;1.55;;;11.70;48.00;;;;;;5028917;28;20142;-77
2022/03/11 12:33:51;;;;;;;0.17;0.17;;;11.70;47.90;;;;;;5053071;28;20447;-77
2022/03/11 12:36:22;;;;;;;1.80;1.75;;;11.70;48.00;;;;;;5062265;28;20025;-75
2022/03/11 12:38:50;;;;;;;0.10;0.10;;;11.80;48.40;;;;;;5067068;28;20028;-77
2022/03/11 12:41:23;;;;;;;0.40;0.40;;;11.90;48.20;;;;;;5073235;28;20032;-78
2022/03/11 12:43:50;;;;;;;0.15;0.15;;;11.90;47.80;;;;;;5064159;28;20024;-77
2022/03/11 12:46:15;;;;;;;0.10;0.10;;;11.80;47.70;;;;;;5056741;28;20116;-78
2022/03/11 12:48:44;;;;;;;0.10;0.10;;;11.80;47.80;;;;;;5060997;28;20708;-81
2022/03/11 12:51:17;;;;;;;0.10;0.10;;;11.80;47.80;;;;;;5060282;28;20095;-77
2022/03/11 12:53:47;;;;;;;0.20;0.20;;;12.00;48.00;;;;;;5058681;28;20116;-73
2022/03/11 12:56:13;;;;;;;0.10;0.10;;;12.00;47.70;;;;;;5060075;28;20047;-72
2022/03/11 12:58:39;;;;;;;0.50;0.50;;;12.20;47.60;;;;;;5059509;28;20043;-71
2022/03/11 13:01:10;;;;;;;0.22;0.22;;;12.40;47.40;;;;;;5065436;28;20021;-72